KLAS

Mc Carran International Airport

Las Vegas, Nevada, USA
KLAS 151140Z 1512/1618 18007KT P6SM FEW150 FM151400 VRB05KT P6SM FEW150 FM151900 16009KT P6SM VCTS FEW120CB TEMPO 1520/1524 VRB20G30KT -TSRA SCT100CB BKN200 FM160400 21011KT P6SM SCT120 SCT200
Issued Valid From Valid To
Aug-15 @ 11:40 UTC
(60 minutes ago)
Aug-15 @ 12:00 UTC
(40 minutes ago)
Aug-16 @ 18:00 UTC
(-1 days ago)
Aug-15 @ 12:00 to Aug-15 @ 14:00
KLAS 151140Z 1512/1618 18007KT P6SM FEW150
Wind Visibility Clouds
180° at 7 knots Greater than 6 miles
  • Few at 15,000' AGL
From Aug-15 @ 14:00 to Aug-15 @ 19:00
FM151400 VRB05KT P6SM FEW150
Wind Visibility Clouds
Variable at 5 knots Greater than 6 miles
  • Few at 15,000' AGL
From Aug-15 @ 19:00 to Aug-16 @ 04:00
FM151900 16009KT P6SM VCTS FEW120CB
Wind Visibility Clouds Conditions
160° at 9 knots Greater than 6 miles
  • Few at 12,000' AGL
  • Area Thunderstorm
Temporary Aug-15 @ 20:00 to Aug-16 @ 00:00
TEMPO 1520/1524 VRB20G30KT -TSRA SCT100CB BKN200
Wind Clouds Conditions
Variable at 20 knots
 Gusting to 30 knots
  • Scattered at 10,000' AGL
  • Broken at 20,000' AGL
  • Light Thunderstorm
  • Light Rain
From Aug-16 @ 04:00 to Aug-16 @ 18:00
FM160400 21011KT P6SM SCT120 SCT200
Wind Visibility Clouds
210° at 11 knots Greater than 6 miles
  • Scattered at 12,000' AGL
  • Scattered at 20,000' AGL
KLAS 151140Z 1512/1618 18007KT P6SM FEW150 FM151400 VRB05KT P6SM FEW150 FM151900 16009KT P6SM VCTS FEW120CB TEMPO 1520/1524 VRB20G30KT -TSRA SCT100CB BKN200 FM160400 21011KT P6SM SCT120 SCT200
Issued Aug-15 @ 11:40 UTC
(60 minutes ago)
Valid From Aug-15 @ 12:00 UTC
(40 minutes ago)
Valid To Aug-16 @ 18:00 UTC
(-1 days ago)
Aug-15 @ 12:00 - Aug-15 @ 14:00
Wind Visibility
180° at 7 knots Greater than 6 miles
Clouds
  • Few at 15,000' AGL
From Aug-15 @ 14:00 - Aug-15 @ 19:00
Wind Visibility
Variable at 5 knots Greater than 6 miles
Clouds
  • Few at 15,000' AGL
From Aug-15 @ 19:00 - Aug-16 @ 04:00
Wind Visibility
160° at 9 knots Greater than 6 miles
Clouds
  • Few at 12,000' AGL
Conditions
  • Area Thunderstorm
Temporary Aug-15 @ 20:00 - Aug-16 @ 00:00
Wind
Variable at 20 knots
 Gusting to 30 knots
Clouds
  • Scattered at 10,000' AGL
  • Broken at 20,000' AGL
Conditions
  • Light Thunderstorm
  • Light Rain
From Aug-16 @ 04:00 - Aug-16 @ 18:00
Wind Visibility
210° at 11 knots Greater than 6 miles
Clouds
  • Scattered at 12,000' AGL
  • Scattered at 20,000' AGL